This is the latest recevied weather packets stored in our database for station/object N4HAC. If no packets are shown the sender has not sent any weather packets the latest 1 day(s).
| Time | Temp. | Humidity | Pressure | Rain* | Wind** | Luminosity | Snow |
|---|---|---|---|---|---|---|---|
| 1778012226 | 27.22° C | 33% | 1003.6 hPa | 0 mm | 3.58 m/s, 129° | 337 W/m² | - |
| 1778011927 | 27.22° C | 33% | 1003.6 hPa | 0 mm | 6.71 m/s, 134° | 370 W/m² | - |
| 1778011622 | 27.22° C | 32% | 1003.8 hPa | 0 mm | 7.15 m/s, 147° | 430 W/m² | - |
| 1778011319 | 27.22° C | 33% | 1003.9 hPa | 0 mm | 5.81 m/s, 154° | 427 W/m² | - |
| 1778011014 | 27.22° C | 33% | 1003.8 hPa | 0 mm | 10.73 m/s, 130° | 398 W/m² | - |
| 1778010712 | 27.78° C | 32% | 1003.6 hPa | 0 mm | 8.49 m/s, 139° | 447 W/m² | - |
| 1778010409 | 27.22° C | 33% | 1003.7 hPa | 0 mm | 6.71 m/s, 141° | 482 W/m² | - |
| 1778010105 | 27.22° C | 33% | 1003.6 hPa | 0 mm | 7.15 m/s, 139° | 452 W/m² | - |
| 1778009802 | 27.22° C | 36% | 1004 hPa | 0 mm | 4.47 m/s, 155° | 493 W/m² | - |
| 1778009499 | 27.22° C | 36% | 1003.9 hPa | 0 mm | 5.36 m/s, 149° | 537 W/m² | - |
| 1778009198 | 27.22° C | 36% | 1003.8 hPa | 0 mm | 9.83 m/s, 159° | 569 W/m² | - |
| 1778008895 | 27.22° C | 37% | 1003.9 hPa | 0 mm | 4.02 m/s, 145° | 528 W/m² | - |
| 1778008593 | 27.22° C | 37% | 1004.1 hPa | 0 mm | 8.49 m/s, 149° | 613 W/m² | - |
| 1778008291 | 27.22° C | 35% | 1004 hPa | 0 mm | 5.81 m/s, 140° | 634 W/m² | - |
| 1778007987 | 27.22° C | 38% | 1004 hPa | 0 mm | 7.6 m/s, 147° | 719 W/m² | - |
| 1778007681 | 26.67° C | 38% | 1004.2 hPa | 0 mm | 8.49 m/s, 156° | 716 W/m² | - |
| 1778007379 | 27.22° C | 37% | 1004.3 hPa | 0 mm | 8.05 m/s, 166° | 758 W/m² | - |
| 1778007075 | 27.78° C | 38% | 1004.4 hPa | 0 mm | 5.36 m/s, 146° | 766 W/m² | - |
| 1778006771 | 27.22° C | 40% | 1004.5 hPa | 0 mm | 4.92 m/s, 136° | 696 W/m² | - |
| 1778006468 | 26.67° C | 39% | 1004.4 hPa | 0 mm | 4.02 m/s, 146° | 715 W/m² | - |
| 1778006165 | 26.67° C | 39% | 1004.7 hPa | 0 mm | 8.05 m/s, 132° | 734 W/m² | - |
| 1778005863 | 27.22° C | 39% | 1004.8 hPa | 0 mm | 4.47 m/s, 122° | 749 W/m² | - |
| 1778005559 | 27.78° C | 40% | 1004.7 hPa | 0 mm | 3.13 m/s, 133° | 767 W/m² | - |
| 1778005256 | 27.22° C | 34% | 1005.1 hPa | 0 mm | 5.81 m/s, 142° | 810 W/m² | - |
| 1778004952 | 26.67° C | 35% | 1004.8 hPa | 0 mm | 6.71 m/s, 137° | 799 W/m² | - |
* Rain latest hour (hover to see other rain measurements)
** Current wind speed in m/s (hover to see current wind gust speed)